Impacts TAF Board INFO
FOR SITUATIONAL AWARENESS. NOT TO BE USED FOR FLIGHT PLANNING PURPOSES.
IDs:

KCLE - Cleveland/Hopkins In, OH, US

Issued at 1125 UTC 16 Dec 2017
Updated at 1500 UTC 16 Dec 2017
Potential Impact None Slight Moderate High
Time1451Z 16/15Z 16/16Z 16/17Z 16/18Z 16/19Z 16/20Z 16/21Z 16/22Z 16/23Z 17/00Z 17/01Z 17/02Z 17/03Z>>
Type OBS PRVL PRVL PRVL PRVL PRVL PRVL PRVL PRVL PRVL PRVL PRVL PRVL PRVL
VIS 10 >6 >6 >6 >6 >6 >6 >6 >6 >6 >6 >6 >6 >6
CIG 90 35 35 35 35 35 35 150 150 150 150 150 150 200
Cover OVC OVC OVC OVC OVC OVC OVC BKN BKN BKN BKN BKN BKN BKN
FltCat VFR VFR VFR VFR VFR VFR VFR VFR VFR VFR VFR VFR VFR VFR
WX -- VCSH VCSH VCSH VCSH VCSH VCSH -- -- -- -- -- -- --
WDir 220 240 240 240 240 240 240 270 270 270 270 270 270 100
WSpd 8 14 14 14 14 14 14 8 8 8 8 8 8 5
WGst -- -- -- -- -- -- -- -- -- -- -- -- -- --

Raw TAF
KCLE 161125Z 1612/1718 23014KT 6SM -SN SCT030 OVC060
  TEMPO 1612/1614 4SM -SHSN BKN030
  FM161400 24014KT P6SM VCSH OVC035
  FM162100 27008KT P6SM SCT040 BKN150
  FM170300 10005KT P6SM SCT060 BKN200


Raw METAR
KCLE 161451Z 22008KT 10SM FEW060 OVC090 02/M03 A3000 RMK AO2 SLP168 T00221033 53006 $
KCLE 161351Z 22010KT 10SM BKN060 OVC080 02/M04 A2999 RMK AO2 SLP165 T00171039 $
KCLE 161251Z 21011KT 10SM OVC075 01/M04 A2999 RMK AO2 SLP164 T00111044 $
KCLE 161151Z 21012KT 10SM BKN050 OVC060 01/M04 A2999 RMK AO2 SLP162 4/004 60001 70001 T00111039 10011 21011 53002 $

METAR Board
Radar Display
Forecast Discussion

FOR SITUATIONAL AWARENESS. NOT TO BE USED FOR FLIGHT PLANNING PURPOSES.